Record high temperature 42.2°C Record low temperature -14.6°C Record high gust 68.5 km/h Record high average 47.2 km/h Record daily rain 55.3 mm Record low windchill -17.5°C Record high barometer 1045.0 hPa Record low barometer 970.0 hPa
Daily high pressure 1014.0 hPa Daily low pressure 1010.0 hPa Daily low windchill 14.1°C Daily high heat index 15.6°C Daily high gust speed 17.6 kmh SW Daily high average speed 13.0 kmh SSW

This page is updated from recent data collected by a WMR200 weather station Use the Reload or Refresh facility on your browser to retrieve the latest data.

Status report of weather station: Bienvenue sur la Station Météo de Godarville



Weather report/warning/Metars

Alexandroupoli Airport , Greece (LGAL) 40-51N 025-55E 3M
Sep 23, 2019 - 02:20 AM EDT / 2019.09.23 0620 UTC
Wind: Calm:0
Visibility: greater than 7 mile(s):0
Temperature: 57 F (14 C)
Dew Point: 50 F (10 C)
Relative Humidity: 76%
Pressure (altimeter): 30.06 in. Hg (1018 hPa)
ob: LGAL 230620Z 00000KT CAVOK 14/10 Q1018
cycle: 6

Charleroi / Gosselies, Belgium (EBCI) 50-28N 004-27E 192M
Sep 23, 2019 - 02:20 AM EDT / 2019.09.23 0620 UTC
Wind: from the SW (220 degrees) at 13 MPH (11 KT):0
Visibility: greater than 7 mile(s):0
Sky conditions: mostly cloudy
Temperature: 57 F (14 C)
Dew Point: 53 F (12 C)
Relative Humidity: 87%
Pressure (altimeter): 29.94 in. Hg (1014 hPa)
ob: EBCI 230620Z 22011KT 9999 BKN009 14/12 Q1014 NOSIG
cycle: 6

Bruxelles National, Belgium (EBBR) 50-54N 004-32E 58M
Sep 23, 2019 - 02:20 AM EDT / 2019.09.23 0620 UTC
Wind: from the SW (220 degrees) at 9 MPH (8 KT) (direction variable):0
Visibility: greater than 7 mile(s):0
Sky conditions: mostly cloudy
Temperature: 59 F (15 C)
Dew Point: 55 F (13 C)
Relative Humidity: 87%
Pressure (altimeter): 29.91 in. Hg (1013 hPa)
ob: EBBR 230620Z 22008KT 190V250 9999 FEW009 BKN011 15/13 Q1013 TEMPO BKN009
cycle: 6

Koksijde, Belgium (EBFN) 51-05N 002-39E 9M
Sep 23, 2019 - 02:25 AM EDT / 2019.09.23 0625 UTC
Wind: from the SSW (210 degrees) at 10 MPH (9 KT):0
Visibility: greater than 7 mile(s):0
Sky conditions: mostly cloudy
Temperature: 57 F (14 C)
Dew Point: 55 F (13 C)
Relative Humidity: 93%
Pressure (altimeter): 29.88 in. Hg (1012 hPa)
ob: EBFN 230625Z 21009KT 9999 FEW015 SCT040 BKN090 14/13 Q1012 BLU BLU TEMPO GRN
cycle: 6

Poznan, Poland (EPPO) 52-25N 016-50E 92M
Sep 23, 2019 - 02:30 AM EDT / 2019.09.23 0630 UTC
Wind: from the E (090 degrees) at 8 MPH (7 KT):0
Visibility: greater than 7 mile(s):0
Temperature: 53 F (12 C)
Dew Point: 48 F (9 C)
Relative Humidity: 81%
Pressure (altimeter): 30.00 in. Hg (1016 hPa)
ob: EPPO 230630Z 09007KT CAVOK 12/09 Q1016 
cycle: 6



Coucher du Soleil:
19:41:55

Lever de Lune:
00:27:48 23/09/19

Coucher de Lune:
15:55:40 22/09/19

Premier Quartier 6 septembre 2019
Pleine Lune 14 septembre 2019
Dernier Quartier 22 septembre 2019
Nouvelle Lune 28 septembre 2019
Âge de lune : 22 jours,23 heures,20 minutes,41%
Les heures du jour possible étaient aujourd’hui 12:13



The data is logged at two minute intervals, but there is data recorded every minute.

Use the RELOAD facility on your browser to retrieve the latest data.

Click here for a daily update of the averages/extremes to date for the month
Created by "Weather Display" software version 10.37P at this start time/date 18:28:57 18/09/2019